sensor_id;sensor_type;location;lat;lon;timestamp;P1;durP1;ratioP1;P2;durP2;ratioP2
1507;SDS011;745;48.586;10.032;2023-03-23T00:03:24;1.60;;;1.50;;
1507;SDS011;745;48.586;10.032;2023-03-23T00:07:58;1.30;;;1.20;;
1507;SDS011;745;48.586;10.032;2023-03-23T00:12:32;1.60;;;1.47;;
1507;SDS011;745;48.586;10.032;2023-03-23T00:17:05;1.50;;;1.40;;
1507;SDS011;745;48.586;10.032;2023-03-23T00:21:36;1.23;;;1.13;;
1507;SDS011;745;48.586;10.032;2023-03-23T00:26:08;1.37;;;1.27;;
1507;SDS011;745;48.586;10.032;2023-03-23T00:30:39;1.60;;;1.50;;
1507;SDS011;745;48.586;10.032;2023-03-23T00:35:12;1.70;;;1.60;;
1507;SDS011;745;48.586;10.032;2023-03-23T00:39:42;2.40;;;2.00;;
1507;SDS011;745;48.586;10.032;2023-03-23T00:44:15;1.43;;;1.33;;
1507;SDS011;745;48.586;10.032;2023-03-23T00:48:49;1.83;;;1.73;;
1507;SDS011;745;48.586;10.032;2023-03-23T00:53:20;1.60;;;1.50;;
1507;SDS011;745;48.586;10.032;2023-03-23T00:57:51;1.87;;;1.73;;
1507;SDS011;745;48.586;10.032;2023-03-23T01:02:21;1.80;;;1.70;;
1507;SDS011;745;48.586;10.032;2023-03-23T01:06:54;2.07;;;1.70;;
1507;SDS011;745;48.586;10.032;2023-03-23T01:11:26;1.50;;;1.40;;
1507;SDS011;745;48.586;10.032;2023-03-23T01:15:56;1.60;;;1.50;;
1507;SDS011;745;48.586;10.032;2023-03-23T01:20:27;1.40;;;1.20;;
1507;SDS011;745;48.586;10.032;2023-03-23T01:24:59;1.90;;;1.70;;
1507;SDS011;745;48.586;10.032;2023-03-23T01:29:29;2.30;;;2.10;;
1507;SDS011;745;48.586;10.032;2023-03-23T01:34:00;1.90;;;1.80;;
1507;SDS011;745;48.586;10.032;2023-03-23T01:38:31;1.70;;;1.60;;
1507;SDS011;745;48.586;10.032;2023-03-23T01:43:02;1.73;;;1.57;;
1507;SDS011;745;48.586;10.032;2023-03-23T01:47:32;2.07;;;1.77;;
1507;SDS011;745;48.586;10.032;2023-03-23T01:52:07;1.60;;;1.47;;
1507;SDS011;745;48.586;10.032;2023-03-23T01:56:43;1.30;;;1.20;;
1507;SDS011;745;48.586;10.032;2023-03-23T02:01:15;1.60;;;1.50;;
1507;SDS011;745;48.586;10.032;2023-03-23T02:05:46;1.80;;;1.70;;
1507;SDS011;745;48.586;10.032;2023-03-23T02:10:16;1.60;;;1.47;;
1507;SDS011;745;48.586;10.032;2023-03-23T02:14:47;1.60;;;1.50;;
1507;SDS011;745;48.586;10.032;2023-03-23T02:33:59;2.60;;;2.40;;
1507;SDS011;745;48.586;10.032;2023-03-23T02:38:38;2.87;;;2.43;;
1507;SDS011;745;48.586;10.032;2023-03-23T02:43:33;2.40;;;2.20;;
1507;SDS011;745;48.586;10.032;2023-03-23T02:48:07;2.83;;;2.63;;
1507;SDS011;745;48.586;10.032;2023-03-23T02:52:39;2.50;;;2.30;;
1507;SDS011;745;48.586;10.032;2023-03-23T02:57:10;2.50;;;2.17;;
1507;SDS011;745;48.586;10.032;2023-03-23T03:11:09;2.70;;;2.20;;
1507;SDS011;745;48.586;10.032;2023-03-23T03:15:53;2.40;;;2.20;;
1507;SDS011;745;48.586;10.032;2023-03-23T03:20:26;2.30;;;2.10;;
1507;SDS011;745;48.586;10.032;2023-03-23T03:24:57;3.40;;;2.40;;
1507;SDS011;745;48.586;10.032;2023-03-23T03:29:34;2.50;;;2.27;;
1507;SDS011;745;48.586;10.032;2023-03-23T03:34:06;3.10;;;2.80;;
1507;SDS011;745;48.586;10.032;2023-03-23T03:38:43;2.73;;;2.53;;
1507;SDS011;745;48.586;10.032;2023-03-23T03:43:15;3.57;;;2.80;;
1507;SDS011;745;48.586;10.032;2023-03-23T03:47:45;2.87;;;2.67;;
1507;SDS011;745;48.586;10.032;2023-03-23T03:52:16;3.50;;;2.83;;
1507;SDS011;745;48.586;10.032;2023-03-23T03:56:47;3.93;;;3.00;;
1507;SDS011;745;48.586;10.032;2023-03-23T04:01:18;3.03;;;2.70;;
1507;SDS011;745;48.586;10.032;2023-03-23T04:05:53;3.27;;;2.97;;
1507;SDS011;745;48.586;10.032;2023-03-23T04:10:25;4.10;;;3.50;;
1507;SDS011;745;48.586;10.032;2023-03-23T04:14:56;5.40;;;3.40;;
1507;SDS011;745;48.586;10.032;2023-03-23T04:19:27;3.80;;;3.40;;
1507;SDS011;745;48.586;10.032;2023-03-23T04:23:58;3.63;;;3.33;;
1507;SDS011;745;48.586;10.032;2023-03-23T04:28:29;3.77;;;3.47;;
1507;SDS011;745;48.586;10.032;2023-03-23T04:33:03;4.83;;;3.90;;
1507;SDS011;745;48.586;10.032;2023-03-23T04:37:34;4.17;;;3.77;;
1507;SDS011;745;48.586;10.032;2023-03-23T04:42:06;4.93;;;4.37;;
1507;SDS011;745;48.586;10.032;2023-03-23T04:46:37;3.80;;;3.47;;
1507;SDS011;745;48.586;10.032;2023-03-23T04:51:08;4.50;;;4.07;;
1507;SDS011;745;48.586;10.032;2023-03-23T04:55:39;3.50;;;3.20;;
1507;SDS011;745;48.586;10.032;2023-03-23T05:00:11;4.10;;;3.70;;
1507;SDS011;745;48.586;10.032;2023-03-23T05:04:45;5.13;;;4.63;;
1507;SDS011;745;48.586;10.032;2023-03-23T05:09:15;4.57;;;4.10;;
1507;SDS011;745;48.586;10.032;2023-03-23T05:13:46;4.87;;;4.00;;
1507;SDS011;745;48.586;10.032;2023-03-23T05:18:16;4.63;;;4.23;;
1507;SDS011;745;48.586;10.032;2023-03-23T05:22:46;4.57;;;4.13;;
1507;SDS011;745;48.586;10.032;2023-03-23T05:27:20;4.90;;;4.50;;
1507;SDS011;745;48.586;10.032;2023-03-23T05:31:50;6.47;;;5.50;;
1507;SDS011;745;48.586;10.032;2023-03-23T05:36:21;6.27;;;5.60;;
1507;SDS011;745;48.586;10.032;2023-03-23T05:40:52;5.50;;;4.87;;
1507;SDS011;745;48.586;10.032;2023-03-23T05:45:23;6.77;;;5.57;;
1507;SDS011;745;48.586;10.032;2023-03-23T05:49:54;5.93;;;5.33;;
1507;SDS011;745;48.586;10.032;2023-03-23T05:54:24;6.50;;;5.33;;
1507;SDS011;745;48.586;10.032;2023-03-23T05:58:55;5.83;;;5.27;;
1507;SDS011;745;48.586;10.032;2023-03-23T06:03:26;8.07;;;5.43;;
1507;SDS011;745;48.586;10.032;2023-03-23T06:07:56;7.77;;;5.90;;
1507;SDS011;745;48.586;10.032;2023-03-23T06:12:26;6.10;;;5.10;;
1507;SDS011;745;48.586;10.032;2023-03-23T06:16:57;6.87;;;5.00;;
1507;SDS011;745;48.586;10.032;2023-03-23T06:21:27;7.17;;;5.33;;
1507;SDS011;745;48.586;10.032;2023-03-23T06:26:04;6.37;;;4.57;;
1507;SDS011;745;48.586;10.032;2023-03-23T06:30:37;5.60;;;4.63;;
1507;SDS011;745;48.586;10.032;2023-03-23T06:35:09;5.70;;;5.07;;
1507;SDS011;745;48.586;10.032;2023-03-23T06:39:39;6.20;;;5.03;;
1507;SDS011;745;48.586;10.032;2023-03-23T06:44:10;6.63;;;5.40;;
1507;SDS011;745;48.586;10.032;2023-03-23T06:48:43;5.70;;;5.10;;
1507;SDS011;745;48.586;10.032;2023-03-23T06:53:13;5.00;;;4.60;;
1507;SDS011;745;48.586;10.032;2023-03-23T06:57:44;5.23;;;4.73;;
1507;SDS011;745;48.586;10.032;2023-03-23T07:02:15;6.37;;;5.30;;
1507;SDS011;745;48.586;10.032;2023-03-23T07:06:46;5.93;;;4.90;;
1507;SDS011;745;48.586;10.032;2023-03-23T07:11:16;5.20;;;4.53;;
1507;SDS011;745;48.586;10.032;2023-03-23T07:15:47;4.77;;;4.20;;
1507;SDS011;745;48.586;10.032;2023-03-23T07:20:18;6.27;;;4.53;;
1507;SDS011;745;48.586;10.032;2023-03-23T07:24:49;4.70;;;4.30;;
1507;SDS011;745;48.586;10.032;2023-03-23T07:29:19;5.20;;;4.70;;
1507;SDS011;745;48.586;10.032;2023-03-23T07:33:50;5.77;;;4.67;;
1507;SDS011;745;48.586;10.032;2023-03-23T07:38:20;5.87;;;5.27;;
1507;SDS011;745;48.586;10.032;2023-03-23T07:42:52;5.70;;;4.53;;
1507;SDS011;745;48.586;10.032;2023-03-23T07:47:23;5.63;;;4.60;;
1507;SDS011;745;48.586;10.032;2023-03-23T07:51:53;5.63;;;4.93;;
1507;SDS011;745;48.586;10.032;2023-03-23T07:56:24;5.10;;;4.60;;
1507;SDS011;745;48.586;10.032;2023-03-23T08:00:55;6.43;;;4.30;;
1507;SDS011;745;48.586;10.032;2023-03-23T08:05:27;3.80;;;3.40;;
1507;SDS011;745;48.586;10.032;2023-03-23T08:09:58;4.47;;;3.67;;
1507;SDS011;745;48.586;10.032;2023-03-23T08:14:28;4.07;;;3.67;;
1507;SDS011;745;48.586;10.032;2023-03-23T08:18:59;5.40;;;3.80;;
1507;SDS011;745;48.586;10.032;2023-03-23T08:23:31;3.40;;;3.10;;
1507;SDS011;745;48.586;10.032;2023-03-23T08:28:02;3.80;;;3.40;;
1507;SDS011;745;48.586;10.032;2023-03-23T08:32:33;3.60;;;3.30;;
1507;SDS011;745;48.586;10.032;2023-03-23T08:37:04;3.90;;;3.50;;
1507;SDS011;745;48.586;10.032;2023-03-23T08:41:36;5.43;;;4.90;;
1507;SDS011;745;48.586;10.032;2023-03-23T08:46:07;7.30;;;5.90;;
1507;SDS011;745;48.586;10.032;2023-03-23T08:50:40;7.57;;;6.00;;
1507;SDS011;745;48.586;10.032;2023-03-23T08:55:11;4.00;;;3.60;;
1507;SDS011;745;48.586;10.032;2023-03-23T08:59:42;3.67;;;3.37;;
1507;SDS011;745;48.586;10.032;2023-03-23T09:04:12;4.33;;;3.60;;
1507;SDS011;745;48.586;10.032;2023-03-23T09:08:44;3.87;;;3.57;;
1507;SDS011;745;48.586;10.032;2023-03-23T09:13:15;4.10;;;3.70;;
1507;SDS011;745;48.586;10.032;2023-03-23T09:17:46;6.00;;;4.07;;
1507;SDS011;745;48.586;10.032;2023-03-23T09:22:18;4.23;;;3.83;;
1507;SDS011;745;48.586;10.032;2023-03-23T09:26:49;4.33;;;3.50;;
1507;SDS011;745;48.586;10.032;2023-03-23T09:31:20;4.90;;;3.33;;
1507;SDS011;745;48.586;10.032;2023-03-23T09:35:50;3.53;;;2.80;;
1507;SDS011;745;48.586;10.032;2023-03-23T09:40:21;4.70;;;2.60;;
1507;SDS011;745;48.586;10.032;2023-03-23T09:49:56;3.30;;;3.00;;
1507;SDS011;745;48.586;10.032;2023-03-23T09:54:31;2.73;;;2.53;;
1507;SDS011;745;48.586;10.032;2023-03-23T10:04:03;2.30;;;1.83;;
1507;SDS011;745;48.586;10.032;2023-03-23T10:08:40;2.27;;;1.93;;
1507;SDS011;745;48.586;10.032;2023-03-23T10:13:26;2.40;;;2.10;;
1507;SDS011;745;48.586;10.032;2023-03-23T10:18:03;3.47;;;2.23;;
1507;SDS011;745;48.586;10.032;2023-03-23T10:22:41;2.30;;;2.10;;
1507;SDS011;745;48.586;10.032;2023-03-23T10:31:53;3.60;;;2.03;;
1507;SDS011;745;48.586;10.032;2023-03-23T10:36:30;2.10;;;1.90;;
1507;SDS011;745;48.586;10.032;2023-03-23T10:41:05;2.50;;;2.30;;
1507;SDS011;745;48.586;10.032;2023-03-23T10:45:39;2.40;;;2.20;;
1507;SDS011;745;48.586;10.032;2023-03-23T10:50:16;2.97;;;2.33;;
1507;SDS011;745;48.586;10.032;2023-03-23T10:54:54;3.10;;;2.37;;
1507;SDS011;745;48.586;10.032;2023-03-23T10:59:27;3.47;;;2.00;;
1507;SDS011;745;48.586;10.032;2023-03-23T11:03:59;2.23;;;2.03;;
1507;SDS011;745;48.586;10.032;2023-03-23T11:08:32;5.43;;;2.60;;
1507;SDS011;745;48.586;10.032;2023-03-23T11:13:09;2.87;;;2.43;;
1507;SDS011;745;48.586;10.032;2023-03-23T11:17:43;3.10;;;2.10;;
1507;SDS011;745;48.586;10.032;2023-03-23T11:22:26;3.67;;;2.80;;
1507;SDS011;745;48.586;10.032;2023-03-23T11:26:58;3.40;;;2.67;;
1507;SDS011;745;48.586;10.032;2023-03-23T11:31:30;2.93;;;2.63;;
1507;SDS011;745;48.586;10.032;2023-03-23T11:36:05;2.70;;;2.50;;
1507;SDS011;745;48.586;10.032;2023-03-23T11:40:43;3.20;;;2.70;;
1507;SDS011;745;48.586;10.032;2023-03-23T11:45:32;2.33;;;2.13;;
1507;SDS011;745;48.586;10.032;2023-03-23T11:50:20;3.23;;;2.10;;
1507;SDS011;745;48.586;10.032;2023-03-23T11:54:56;2.80;;;2.43;;
1507;SDS011;745;48.586;10.032;2023-03-23T11:59:33;2.73;;;2.07;;
1507;SDS011;745;48.586;10.032;2023-03-23T12:18:54;4.60;;;2.43;;
1507;SDS011;745;48.586;10.032;2023-03-23T12:23:45;2.90;;;2.63;;
1507;SDS011;745;48.586;10.032;2023-03-23T12:43:08;2.67;;;2.47;;
1507;SDS011;745;48.586;10.032;2023-03-23T12:48:12;3.10;;;2.37;;
1507;SDS011;745;48.586;10.032;2023-03-23T12:57:30;3.30;;;2.70;;
1507;SDS011;745;48.586;10.032;2023-03-23T13:02:13;2.77;;;2.40;;
1507;SDS011;745;48.586;10.032;2023-03-23T13:06:49;2.80;;;2.50;;
1507;SDS011;745;48.586;10.032;2023-03-23T13:11:21;3.47;;;2.87;;
1507;SDS011;745;48.586;10.032;2023-03-23T13:16:07;3.53;;;2.90;;
1507;SDS011;745;48.586;10.032;2023-03-23T13:20:53;3.10;;;2.50;;
1507;SDS011;745;48.586;10.032;2023-03-23T13:25:35;2.83;;;2.63;;
1507;SDS011;745;48.586;10.032;2023-03-23T13:30:19;3.30;;;2.80;;
1507;SDS011;745;48.586;10.032;2023-03-23T13:34:51;2.73;;;2.53;;
1507;SDS011;745;48.586;10.032;2023-03-23T13:44:04;4.33;;;3.80;;
1507;SDS011;745;48.586;10.032;2023-03-23T13:48:40;3.37;;;2.73;;
1507;SDS011;745;48.586;10.032;2023-03-23T13:53:21;3.50;;;2.87;;
1507;SDS011;745;48.586;10.032;2023-03-23T14:02:37;3.77;;;2.60;;
1507;SDS011;745;48.586;10.032;2023-03-23T14:07:10;2.77;;;2.47;;
1507;SDS011;745;48.586;10.032;2023-03-23T14:11:54;3.00;;;2.67;;
1507;SDS011;745;48.586;10.032;2023-03-23T14:21:14;2.87;;;2.67;;
1507;SDS011;745;48.586;10.032;2023-03-23T14:25:53;3.20;;;2.90;;
1507;SDS011;745;48.586;10.032;2023-03-23T14:30:26;3.07;;;2.83;;
1507;SDS011;745;48.586;10.032;2023-03-23T14:34:58;2.93;;;2.63;;
1507;SDS011;745;48.586;10.032;2023-03-23T14:39:30;3.83;;;2.93;;
1507;SDS011;745;48.586;10.032;2023-03-23T14:44:03;2.77;;;2.57;;
1507;SDS011;745;48.586;10.032;2023-03-23T14:48:35;3.07;;;2.77;;
1507;SDS011;745;48.586;10.032;2023-03-23T14:58:06;3.40;;;3.00;;
1507;SDS011;745;48.586;10.032;2023-03-23T15:02:41;3.10;;;2.80;;
1507;SDS011;745;48.586;10.032;2023-03-23T15:07:15;2.40;;;2.20;;
1507;SDS011;745;48.586;10.032;2023-03-23T15:12:00;4.53;;;3.00;;
1507;SDS011;745;48.586;10.032;2023-03-23T15:16:32;2.73;;;2.50;;
1507;SDS011;745;48.586;10.032;2023-03-23T15:21:20;2.73;;;2.50;;
1507;SDS011;745;48.586;10.032;2023-03-23T15:26:02;2.87;;;2.67;;
1507;SDS011;745;48.586;10.032;2023-03-23T15:30:35;3.27;;;2.63;;
1507;SDS011;745;48.586;10.032;2023-03-23T15:35:14;3.07;;;2.87;;
1507;SDS011;745;48.586;10.032;2023-03-23T15:39:47;3.10;;;2.47;;
1507;SDS011;745;48.586;10.032;2023-03-23T15:44:31;3.07;;;2.77;;
1507;SDS011;745;48.586;10.032;2023-03-23T15:49:10;3.80;;;3.37;;
1507;SDS011;745;48.586;10.032;2023-03-23T15:53:41;4.30;;;3.03;;
1507;SDS011;745;48.586;10.032;2023-03-23T15:58:12;3.80;;;3.50;;
1507;SDS011;745;48.586;10.032;2023-03-23T16:02:44;3.17;;;2.77;;
1507;SDS011;745;48.586;10.032;2023-03-23T16:07:16;2.63;;;2.43;;
1507;SDS011;745;48.586;10.032;2023-03-23T16:11:47;4.03;;;3.63;;
1507;SDS011;745;48.586;10.032;2023-03-23T16:16:22;3.60;;;3.10;;
1507;SDS011;745;48.586;10.032;2023-03-23T16:20:55;3.20;;;2.90;;
1507;SDS011;745;48.586;10.032;2023-03-23T16:25:25;3.47;;;2.97;;
1507;SDS011;745;48.586;10.032;2023-03-23T16:29:56;4.90;;;4.40;;
1507;SDS011;745;48.586;10.032;2023-03-23T16:34:27;4.37;;;3.93;;
1507;SDS011;745;48.586;10.032;2023-03-23T16:39:02;4.77;;;3.93;;
1507;SDS011;745;48.586;10.032;2023-03-23T16:43:32;3.83;;;3.50;;
1507;SDS011;745;48.586;10.032;2023-03-23T16:48:03;4.73;;;3.70;;
1507;SDS011;745;48.586;10.032;2023-03-23T16:52:34;5.00;;;4.60;;
1507;SDS011;745;48.586;10.032;2023-03-23T16:57:04;5.33;;;4.83;;
1507;SDS011;745;48.586;10.032;2023-03-23T17:01:35;4.23;;;3.83;;
1507;SDS011;745;48.586;10.032;2023-03-23T17:06:05;3.67;;;3.37;;
1507;SDS011;745;48.586;10.032;2023-03-23T17:10:36;4.20;;;3.70;;
1507;SDS011;745;48.586;10.032;2023-03-23T17:15:07;5.90;;;3.70;;
1507;SDS011;745;48.586;10.032;2023-03-23T17:19:38;3.73;;;3.43;;
1507;SDS011;745;48.586;10.032;2023-03-23T17:24:09;4.30;;;3.90;;
1507;SDS011;745;48.586;10.032;2023-03-23T17:28:39;5.17;;;4.40;;
1507;SDS011;745;48.586;10.032;2023-03-23T17:33:10;4.33;;;3.93;;
1507;SDS011;745;48.586;10.032;2023-03-23T17:37:41;3.80;;;3.40;;
1507;SDS011;745;48.586;10.032;2023-03-23T17:42:12;3.50;;;3.20;;
1507;SDS011;745;48.586;10.032;2023-03-23T17:46:42;6.73;;;4.50;;
1507;SDS011;745;48.586;10.032;2023-03-23T17:51:14;4.80;;;4.30;;
1507;SDS011;745;48.586;10.032;2023-03-23T17:55:44;5.93;;;5.30;;
1507;SDS011;745;48.586;10.032;2023-03-23T18:00:15;5.40;;;4.90;;
1507;SDS011;745;48.586;10.032;2023-03-23T18:04:46;4.70;;;4.30;;
1507;SDS011;745;48.586;10.032;2023-03-23T18:09:16;4.57;;;3.87;;
1507;SDS011;745;48.586;10.032;2023-03-23T18:13:47;4.07;;;3.67;;
1507;SDS011;745;48.586;10.032;2023-03-23T18:18:17;4.67;;;4.20;;
1507;SDS011;745;48.586;10.032;2023-03-23T18:22:48;4.07;;;3.77;;
1507;SDS011;745;48.586;10.032;2023-03-23T18:27:18;5.47;;;3.87;;
1507;SDS011;745;48.586;10.032;2023-03-23T18:31:50;4.30;;;4.00;;
1507;SDS011;745;48.586;10.032;2023-03-23T18:36:24;7.63;;;6.67;;
1507;SDS011;745;48.586;10.032;2023-03-23T18:40:55;7.47;;;6.00;;
1507;SDS011;745;48.586;10.032;2023-03-23T18:45:25;6.50;;;5.90;;
1507;SDS011;745;48.586;10.032;2023-03-23T18:49:56;7.00;;;6.27;;
1507;SDS011;745;48.586;10.032;2023-03-23T18:54:28;8.27;;;7.03;;
1507;SDS011;745;48.586;10.032;2023-03-23T18:59:03;7.20;;;6.50;;
1507;SDS011;745;48.586;10.032;2023-03-23T19:03:34;5.90;;;5.27;;
1507;SDS011;745;48.586;10.032;2023-03-23T19:08:06;5.60;;;5.10;;
1507;SDS011;745;48.586;10.032;2023-03-23T19:12:37;8.13;;;7.30;;
1507;SDS011;745;48.586;10.032;2023-03-23T19:17:08;9.40;;;7.43;;
1507;SDS011;745;48.586;10.032;2023-03-23T19:21:38;7.43;;;6.40;;
1507;SDS011;745;48.586;10.032;2023-03-23T19:26:10;6.13;;;5.53;;
1507;SDS011;745;48.586;10.032;2023-03-23T19:30:52;6.97;;;6.17;;
1507;SDS011;745;48.586;10.032;2023-03-23T19:35:24;5.20;;;4.80;;
1507;SDS011;745;48.586;10.032;2023-03-23T19:39:55;5.00;;;4.43;;
1507;SDS011;745;48.586;10.032;2023-03-23T19:44:25;5.10;;;4.70;;
1507;SDS011;745;48.586;10.032;2023-03-23T19:48:55;5.17;;;4.67;;
1507;SDS011;745;48.586;10.032;2023-03-23T19:53:26;6.20;;;5.60;;
1507;SDS011;745;48.586;10.032;2023-03-23T19:57:56;5.63;;;5.07;;
1507;SDS011;745;48.586;10.032;2023-03-23T20:02:26;5.83;;;4.90;;
1507;SDS011;745;48.586;10.032;2023-03-23T20:06:57;5.97;;;5.40;;
1507;SDS011;745;48.586;10.032;2023-03-23T20:11:28;5.90;;;5.20;;
1507;SDS011;745;48.586;10.032;2023-03-23T20:15:58;4.43;;;4.13;;
1507;SDS011;745;48.586;10.032;2023-03-23T20:20:29;4.97;;;4.57;;
1507;SDS011;745;48.586;10.032;2023-03-23T20:25:00;5.63;;;5.13;;
1507;SDS011;745;48.586;10.032;2023-03-23T20:29:30;6.73;;;5.93;;
1507;SDS011;745;48.586;10.032;2023-03-23T20:34:06;5.00;;;4.50;;
1507;SDS011;745;48.586;10.032;2023-03-23T20:38:39;5.13;;;4.63;;
1507;SDS011;745;48.586;10.032;2023-03-23T20:43:11;4.67;;;4.27;;
1507;SDS011;745;48.586;10.032;2023-03-23T20:47:42;4.37;;;3.97;;
1507;SDS011;745;48.586;10.032;2023-03-23T20:52:13;5.13;;;4.60;;
1507;SDS011;745;48.586;10.032;2023-03-23T20:56:43;4.40;;;4.00;;
1507;SDS011;745;48.586;10.032;2023-03-23T21:01:14;4.63;;;4.23;;
1507;SDS011;745;48.586;10.032;2023-03-23T21:05:45;4.30;;;3.90;;
1507;SDS011;745;48.586;10.032;2023-03-23T21:10:15;4.50;;;4.10;;
1507;SDS011;745;48.586;10.032;2023-03-23T21:14:46;3.80;;;3.50;;
1507;SDS011;745;48.586;10.032;2023-03-23T21:19:16;3.83;;;3.47;;
1507;SDS011;745;48.586;10.032;2023-03-23T21:23:48;4.00;;;3.60;;
1507;SDS011;745;48.586;10.032;2023-03-23T21:28:21;4.20;;;3.80;;
1507;SDS011;745;48.586;10.032;2023-03-23T21:32:51;5.23;;;3.73;;
1507;SDS011;745;48.586;10.032;2023-03-23T21:37:22;4.00;;;3.30;;
1507;SDS011;745;48.586;10.032;2023-03-23T21:41:52;4.10;;;3.70;;
1507;SDS011;745;48.586;10.032;2023-03-23T21:46:22;4.33;;;3.93;;
1507;SDS011;745;48.586;10.032;2023-03-23T21:50:53;4.10;;;3.70;;
1507;SDS011;745;48.586;10.032;2023-03-23T21:55:23;3.87;;;3.57;;
1507;SDS011;745;48.586;10.032;2023-03-23T21:59:54;3.67;;;3.30;;
1507;SDS011;745;48.586;10.032;2023-03-23T22:04:24;3.87;;;3.47;;
1507;SDS011;745;48.586;10.032;2023-03-23T22:08:55;3.40;;;3.10;;
1507;SDS011;745;48.586;10.032;2023-03-23T22:13:26;3.10;;;2.80;;
1507;SDS011;745;48.586;10.032;2023-03-23T22:17:57;2.90;;;2.40;;
1507;SDS011;745;48.586;10.032;2023-03-23T22:22:27;2.90;;;2.60;;
1507;SDS011;745;48.586;10.032;2023-03-23T22:26:58;2.40;;;2.20;;
1507;SDS011;745;48.586;10.032;2023-03-23T22:31:30;3.00;;;2.73;;
1507;SDS011;745;48.586;10.032;2023-03-23T22:36:03;2.77;;;2.57;;
1507;SDS011;745;48.586;10.032;2023-03-23T22:40:35;2.73;;;2.53;;
1507;SDS011;745;48.586;10.032;2023-03-23T22:45:06;3.13;;;2.83;;
1507;SDS011;745;48.586;10.032;2023-03-23T22:49:39;3.07;;;2.77;;
1507;SDS011;745;48.586;10.032;2023-03-23T22:54:09;2.67;;;2.47;;
1507;SDS011;745;48.586;10.032;2023-03-23T22:58:40;2.70;;;2.50;;
1507;SDS011;745;48.586;10.032;2023-03-23T23:03:10;3.33;;;3.03;;
1507;SDS011;745;48.586;10.032;2023-03-23T23:07:41;2.90;;;2.70;;
1507;SDS011;745;48.586;10.032;2023-03-23T23:12:12;3.70;;;3.40;;
1507;SDS011;745;48.586;10.032;2023-03-23T23:16:43;4.20;;;3.80;;
1507;SDS011;745;48.586;10.032;2023-03-23T23:21:14;5.20;;;4.17;;
1507;SDS011;745;48.586;10.032;2023-03-23T23:25:47;4.63;;;4.20;;
1507;SDS011;745;48.586;10.032;2023-03-23T23:30:18;4.47;;;4.07;;
1507;SDS011;745;48.586;10.032;2023-03-23T23:34:48;4.57;;;4.17;;
1507;SDS011;745;48.586;10.032;2023-03-23T23:39:19;4.57;;;4.17;;
1507;SDS011;745;48.586;10.032;2023-03-23T23:43:49;4.57;;;4.17;;
1507;SDS011;745;48.586;10.032;2023-03-23T23:48:20;4.30;;;3.90;;
1507;SDS011;745;48.586;10.032;2023-03-23T23:52:50;4.43;;;4.03;;
1507;SDS011;745;48.586;10.032;2023-03-23T23:57:21;5.07;;;4.57;;
